sensor_id;sensor_type;location;lat;lon;timestamp;temperature;humidity
11107;DHT22;5607;48.302;14.294;2023-09-07T00:00:46;21.00;99.90
11107;DHT22;5607;48.302;14.294;2023-09-07T00:03:32;21.00;99.90
11107;DHT22;5607;48.302;14.294;2023-09-07T00:06:18;21.00;99.90
11107;DHT22;5607;48.302;14.294;2023-09-07T00:09:04;21.00;99.90
11107;DHT22;5607;48.302;14.294;2023-09-07T00:11:51;21.00;99.90
11107;DHT22;5607;48.302;14.294;2023-09-07T00:14:38;21.00;99.90
11107;DHT22;5607;48.302;14.294;2023-09-07T00:17:25;21.00;99.90
11107;DHT22;5607;48.302;14.294;2023-09-07T00:20:11;21.00;99.90
11107;DHT22;5607;48.302;14.294;2023-09-07T00:23:00;21.00;99.90
11107;DHT22;5607;48.302;14.294;2023-09-07T00:25:46;21.10;99.90
11107;DHT22;5607;48.302;14.294;2023-09-07T00:28:32;21.10;99.90
11107;DHT22;5607;48.302;14.294;2023-09-07T00:31:21;21.00;99.90
11107;DHT22;5607;48.302;14.294;2023-09-07T00:34:07;21.00;99.90
11107;DHT22;5607;48.302;14.294;2023-09-07T00:36:53;21.00;99.90
11107;DHT22;5607;48.302;14.294;2023-09-07T00:39:39;21.00;99.90
11107;DHT22;5607;48.302;14.294;2023-09-07T00:42:25;21.00;99.90
11107;DHT22;5607;48.302;14.294;2023-09-07T00:45:12;21.00;99.90
11107;DHT22;5607;48.302;14.294;2023-09-07T00:47:59;21.00;99.90
11107;DHT22;5607;48.302;14.294;2023-09-07T00:50:45;21.00;99.90
11107;DHT22;5607;48.302;14.294;2023-09-07T00:53:31;21.10;99.90
11107;DHT22;5607;48.302;14.294;2023-09-07T00:56:18;21.10;99.90
11107;DHT22;5607;48.302;14.294;2023-09-07T00:59:04;21.10;99.90
11107;DHT22;5607;48.302;14.294;2023-09-07T01:01:52;21.20;99.90
11107;DHT22;5607;48.302;14.294;2023-09-07T01:04:38;21.20;99.90
11107;DHT22;5607;48.302;14.294;2023-09-07T01:07:25;21.20;99.90
11107;DHT22;5607;48.302;14.294;2023-09-07T01:10:11;21.20;99.90
11107;DHT22;5607;48.302;14.294;2023-09-07T01:12:59;21.20;99.90
11107;DHT22;5607;48.302;14.294;2023-09-07T01:15:46;21.10;99.90
11107;DHT22;5607;48.302;14.294;2023-09-07T01:18:33;21.10;99.90
11107;DHT22;5607;48.302;14.294;2023-09-07T01:21:20;21.10;99.90
11107;DHT22;5607;48.302;14.294;2023-09-07T01:24:09;21.10;99.90
11107;DHT22;5607;48.302;14.294;2023-09-07T01:26:56;21.10;99.90
11107;DHT22;5607;48.302;14.294;2023-09-07T01:29:44;21.10;99.90
11107;DHT22;5607;48.302;14.294;2023-09-07T01:32:30;21.10;99.90
11107;DHT22;5607;48.302;14.294;2023-09-07T01:35:17;21.20;99.90
11107;DHT22;5607;48.302;14.294;2023-09-07T01:41:10;21.10;99.90
11107;DHT22;5607;48.302;14.294;2023-09-07T01:43:56;21.10;99.90
11107;DHT22;5607;48.302;14.294;2023-09-07T01:46:43;21.10;99.90
11107;DHT22;5607;48.302;14.294;2023-09-07T01:49:29;21.00;99.90
11107;DHT22;5607;48.302;14.294;2023-09-07T01:52:16;21.00;99.90
11107;DHT22;5607;48.302;14.294;2023-09-07T01:55:02;20.90;99.90
11107;DHT22;5607;48.302;14.294;2023-09-07T01:57:48;20.80;99.90
11107;DHT22;5607;48.302;14.294;2023-09-07T02:00:38;20.80;99.90
11107;DHT22;5607;48.302;14.294;2023-09-07T02:03:25;20.80;99.90
11107;DHT22;5607;48.302;14.294;2023-09-07T02:06:11;20.80;99.90
11107;DHT22;5607;48.302;14.294;2023-09-07T02:08:57;20.70;99.90
11107;DHT22;5607;48.302;14.294;2023-09-07T02:11:43;20.70;99.90
11107;DHT22;5607;48.302;14.294;2023-09-07T02:14:30;20.70;99.90
11107;DHT22;5607;48.302;14.294;2023-09-07T02:17:16;20.70;99.90
11107;DHT22;5607;48.302;14.294;2023-09-07T02:20:04;20.60;99.90
11107;DHT22;5607;48.302;14.294;2023-09-07T02:22:56;20.70;99.90
11107;DHT22;5607;48.302;14.294;2023-09-07T02:25:42;20.70;99.90
11107;DHT22;5607;48.302;14.294;2023-09-07T02:28:29;20.70;99.90
11107;DHT22;5607;48.302;14.294;2023-09-07T02:31:15;20.70;99.90
11107;DHT22;5607;48.302;14.294;2023-09-07T02:34:02;20.70;99.90
11107;DHT22;5607;48.302;14.294;2023-09-07T02:36:49;20.60;99.90
11107;DHT22;5607;48.302;14.294;2023-09-07T02:39:37;20.60;99.90
11107;DHT22;5607;48.302;14.294;2023-09-07T02:42:23;20.60;99.90
11107;DHT22;5607;48.302;14.294;2023-09-07T02:45:10;20.60;99.90
11107;DHT22;5607;48.302;14.294;2023-09-07T02:47:57;20.50;99.90
11107;DHT22;5607;48.302;14.294;2023-09-07T02:50:43;20.50;99.90
11107;DHT22;5607;48.302;14.294;2023-09-07T02:53:34;20.50;99.90
11107;DHT22;5607;48.302;14.294;2023-09-07T02:56:20;20.50;99.90
11107;DHT22;5607;48.302;14.294;2023-09-07T02:59:07;20.50;99.90
11107;DHT22;5607;48.302;14.294;2023-09-07T03:01:53;20.40;99.90
11107;DHT22;5607;48.302;14.294;2023-09-07T03:04:39;20.40;99.90
11107;DHT22;5607;48.302;14.294;2023-09-07T03:07:25;20.40;99.90
11107;DHT22;5607;48.302;14.294;2023-09-07T03:10:11;20.40;99.90
11107;DHT22;5607;48.302;14.294;2023-09-07T03:12:58;20.30;99.90
11107;DHT22;5607;48.302;14.294;2023-09-07T03:15:44;20.40;99.90
11107;DHT22;5607;48.302;14.294;2023-09-07T03:18:30;20.40;99.90
11107;DHT22;5607;48.302;14.294;2023-09-07T03:21:17;20.30;99.90
11107;DHT22;5607;48.302;14.294;2023-09-07T03:24:03;20.30;99.90
11107;DHT22;5607;48.302;14.294;2023-09-07T03:26:49;20.20;99.90
11107;DHT22;5607;48.302;14.294;2023-09-07T03:29:36;20.20;99.90
11107;DHT22;5607;48.302;14.294;2023-09-07T03:32:22;20.20;99.90
11107;DHT22;5607;48.302;14.294;2023-09-07T03:35:08;20.20;99.90
11107;DHT22;5607;48.302;14.294;2023-09-07T03:37:55;20.20;99.90
11107;DHT22;5607;48.302;14.294;2023-09-07T03:40:41;20.20;99.90
11107;DHT22;5607;48.302;14.294;2023-09-07T03:43:27;20.20;99.90
11107;DHT22;5607;48.302;14.294;2023-09-07T03:46:14;20.20;99.90
11107;DHT22;5607;48.302;14.294;2023-09-07T03:49:00;20.20;99.90
11107;DHT22;5607;48.302;14.294;2023-09-07T03:51:46;20.10;99.90
11107;DHT22;5607;48.302;14.294;2023-09-07T03:54:32;20.10;99.90
11107;DHT22;5607;48.302;14.294;2023-09-07T03:57:19;20.00;99.90
11107;DHT22;5607;48.302;14.294;2023-09-07T04:00:06;19.90;99.90
11107;DHT22;5607;48.302;14.294;2023-09-07T04:02:53;19.90;99.90
11107;DHT22;5607;48.302;14.294;2023-09-07T04:05:41;19.90;99.90
11107;DHT22;5607;48.302;14.294;2023-09-07T04:08:28;19.80;99.90
11107;DHT22;5607;48.302;14.294;2023-09-07T04:11:14;19.80;99.90
11107;DHT22;5607;48.302;14.294;2023-09-07T04:14:00;19.80;99.90
11107;DHT22;5607;48.302;14.294;2023-09-07T04:16:46;19.70;99.90
11107;DHT22;5607;48.302;14.294;2023-09-07T04:19:33;19.70;99.90
11107;DHT22;5607;48.302;14.294;2023-09-07T04:22:19;19.60;99.90
11107;DHT22;5607;48.302;14.294;2023-09-07T04:25:05;19.60;99.90
11107;DHT22;5607;48.302;14.294;2023-09-07T04:27:52;19.60;99.90
11107;DHT22;5607;48.302;14.294;2023-09-07T04:30:38;19.70;99.90
11107;DHT22;5607;48.302;14.294;2023-09-07T04:33:25;19.60;99.90
11107;DHT22;5607;48.302;14.294;2023-09-07T04:36:12;19.60;99.90
11107;DHT22;5607;48.302;14.294;2023-09-07T04:38:58;19.50;99.90
11107;DHT22;5607;48.302;14.294;2023-09-07T04:41:45;19.50;99.90
11107;DHT22;5607;48.302;14.294;2023-09-07T04:44:31;19.50;99.90
11107;DHT22;5607;48.302;14.294;2023-09-07T04:47:17;19.50;99.90
11107;DHT22;5607;48.302;14.294;2023-09-07T04:50:04;19.60;99.90
11107;DHT22;5607;48.302;14.294;2023-09-07T04:52:50;19.60;99.90
11107;DHT22;5607;48.302;14.294;2023-09-07T04:55:37;19.70;99.90
11107;DHT22;5607;48.302;14.294;2023-09-07T04:58:23;19.70;99.90
11107;DHT22;5607;48.302;14.294;2023-09-07T05:01:10;19.70;99.90
11107;DHT22;5607;48.302;14.294;2023-09-07T05:03:57;19.60;99.90
11107;DHT22;5607;48.302;14.294;2023-09-07T05:06:43;19.60;99.90
11107;DHT22;5607;48.302;14.294;2023-09-07T05:09:29;19.50;99.90
11107;DHT22;5607;48.302;14.294;2023-09-07T05:12:18;19.50;99.90
11107;DHT22;5607;48.302;14.294;2023-09-07T05:15:06;19.40;99.90
11107;DHT22;5607;48.302;14.294;2023-09-07T05:17:53;19.40;99.90
11107;DHT22;5607;48.302;14.294;2023-09-07T05:20:40;19.40;99.90
11107;DHT22;5607;48.302;14.294;2023-09-07T05:23:26;19.40;99.90
11107;DHT22;5607;48.302;14.294;2023-09-07T05:26:12;19.40;99.90
11107;DHT22;5607;48.302;14.294;2023-09-07T05:28:58;19.40;99.90
11107;DHT22;5607;48.302;14.294;2023-09-07T05:31:45;19.30;99.90
11107;DHT22;5607;48.302;14.294;2023-09-07T05:34:31;19.40;99.90
11107;DHT22;5607;48.302;14.294;2023-09-07T05:37:18;19.40;99.90
11107;DHT22;5607;48.302;14.294;2023-09-07T05:40:04;19.50;99.90
11107;DHT22;5607;48.302;14.294;2023-09-07T05:42:51;19.50;99.90
11107;DHT22;5607;48.302;14.294;2023-09-07T05:45:39;19.60;99.90
11107;DHT22;5607;48.302;14.294;2023-09-07T05:48:25;19.60;99.90
11107;DHT22;5607;48.302;14.294;2023-09-07T05:51:12;19.70;99.90
11107;DHT22;5607;48.302;14.294;2023-09-07T05:53:58;19.70;99.90
11107;DHT22;5607;48.302;14.294;2023-09-07T05:56:44;19.80;99.90
11107;DHT22;5607;48.302;14.294;2023-09-07T05:59:30;19.90;99.90
11107;DHT22;5607;48.302;14.294;2023-09-07T06:02:17;19.90;99.90
11107;DHT22;5607;48.302;14.294;2023-09-07T06:05:03;20.00;99.90
11107;DHT22;5607;48.302;14.294;2023-09-07T06:07:49;20.10;99.90
11107;DHT22;5607;48.302;14.294;2023-09-07T06:10:36;20.10;99.90
11107;DHT22;5607;48.302;14.294;2023-09-07T06:13:23;20.20;99.90
11107;DHT22;5607;48.302;14.294;2023-09-07T06:16:09;20.20;99.90
11107;DHT22;5607;48.302;14.294;2023-09-07T06:18:55;20.30;99.90
11107;DHT22;5607;48.302;14.294;2023-09-07T06:21:41;20.30;99.90
11107;DHT22;5607;48.302;14.294;2023-09-07T06:24:27;20.40;99.90
11107;DHT22;5607;48.302;14.294;2023-09-07T06:27:14;20.50;99.90
11107;DHT22;5607;48.302;14.294;2023-09-07T06:30:00;20.60;99.90
11107;DHT22;5607;48.302;14.294;2023-09-07T06:32:46;20.70;99.90
11107;DHT22;5607;48.302;14.294;2023-09-07T06:35:34;20.80;99.90
11107;DHT22;5607;48.302;14.294;2023-09-07T06:38:20;20.90;99.90
11107;DHT22;5607;48.302;14.294;2023-09-07T06:41:07;21.10;99.90
11107;DHT22;5607;48.302;14.294;2023-09-07T06:43:55;21.20;99.90
11107;DHT22;5607;48.302;14.294;2023-09-07T06:46:41;21.40;99.90
11107;DHT22;5607;48.302;14.294;2023-09-07T06:49:28;21.50;99.90
11107;DHT22;5607;48.302;14.294;2023-09-07T06:52:15;21.60;99.90
11107;DHT22;5607;48.302;14.294;2023-09-07T06:55:01;21.80;99.90
11107;DHT22;5607;48.302;14.294;2023-09-07T06:57:48;22.00;99.90
11107;DHT22;5607;48.302;14.294;2023-09-07T07:00:35;22.10;99.90
11107;DHT22;5607;48.302;14.294;2023-09-07T07:03:21;22.20;99.90
11107;DHT22;5607;48.302;14.294;2023-09-07T07:06:08;22.40;99.90
11107;DHT22;5607;48.302;14.294;2023-09-07T07:08:54;22.60;99.90
11107;DHT22;5607;48.302;14.294;2023-09-07T07:11:40;22.70;99.90
11107;DHT22;5607;48.302;14.294;2023-09-07T07:14:27;22.90;99.90
11107;DHT22;5607;48.302;14.294;2023-09-07T07:17:13;23.00;99.90
11107;DHT22;5607;48.302;14.294;2023-09-07T07:20:00;23.10;99.90
11107;DHT22;5607;48.302;14.294;2023-09-07T07:22:46;23.20;99.90
11107;DHT22;5607;48.302;14.294;2023-09-07T07:25:32;23.40;99.90
11107;DHT22;5607;48.302;14.294;2023-09-07T07:28:22;23.50;99.90
11107;DHT22;5607;48.302;14.294;2023-09-07T07:31:09;23.60;99.90
11107;DHT22;5607;48.302;14.294;2023-09-07T07:33:55;23.60;99.90
11107;DHT22;5607;48.302;14.294;2023-09-07T07:36:42;23.70;99.90
11107;DHT22;5607;48.302;14.294;2023-09-07T07:39:28;23.80;99.90
11107;DHT22;5607;48.302;14.294;2023-09-07T07:42:14;23.80;99.90
11107;DHT22;5607;48.302;14.294;2023-09-07T07:45:00;23.90;99.90
11107;DHT22;5607;48.302;14.294;2023-09-07T07:47:50;24.00;99.90
11107;DHT22;5607;48.302;14.294;2023-09-07T07:50:39;24.00;99.90
11107;DHT22;5607;48.302;14.294;2023-09-07T07:53:25;24.20;99.90
11107;DHT22;5607;48.302;14.294;2023-09-07T07:56:15;24.30;99.90
11107;DHT22;5607;48.302;14.294;2023-09-07T07:59:02;24.40;99.90
11107;DHT22;5607;48.302;14.294;2023-09-07T08:01:49;24.50;99.90
11107;DHT22;5607;48.302;14.294;2023-09-07T08:04:35;24.70;99.90
11107;DHT22;5607;48.302;14.294;2023-09-07T08:07:22;24.80;99.90
11107;DHT22;5607;48.302;14.294;2023-09-07T08:10:08;24.90;99.90
11107;DHT22;5607;48.302;14.294;2023-09-07T08:12:54;24.90;99.90
11107;DHT22;5607;48.302;14.294;2023-09-07T08:15:41;25.10;99.90
11107;DHT22;5607;48.302;14.294;2023-09-07T08:18:28;25.20;99.90
11107;DHT22;5607;48.302;14.294;2023-09-07T08:21:16;25.30;99.90
11107;DHT22;5607;48.302;14.294;2023-09-07T08:24:02;25.40;99.90
11107;DHT22;5607;48.302;14.294;2023-09-07T08:26:49;25.50;99.90
11107;DHT22;5607;48.302;14.294;2023-09-07T08:29:37;25.50;99.90
11107;DHT22;5607;48.302;14.294;2023-09-07T08:32:23;25.60;99.90
11107;DHT22;5607;48.302;14.294;2023-09-07T08:35:10;25.70;99.90
11107;DHT22;5607;48.302;14.294;2023-09-07T08:37:58;25.80;99.90
11107;DHT22;5607;48.302;14.294;2023-09-07T08:40:47;25.90;99.90
11107;DHT22;5607;48.302;14.294;2023-09-07T08:43:34;25.90;99.90
11107;DHT22;5607;48.302;14.294;2023-09-07T08:46:21;25.90;99.90
11107;DHT22;5607;48.302;14.294;2023-09-07T08:49:09;26.00;99.90
11107;DHT22;5607;48.302;14.294;2023-09-07T08:51:58;26.10;99.90
11107;DHT22;5607;48.302;14.294;2023-09-07T08:54:44;26.10;99.90
11107;DHT22;5607;48.302;14.294;2023-09-07T08:57:31;26.00;99.90
11107;DHT22;5607;48.302;14.294;2023-09-07T09:00:18;26.10;99.90
11107;DHT22;5607;48.302;14.294;2023-09-07T09:03:06;26.10;99.90
11107;DHT22;5607;48.302;14.294;2023-09-07T09:05:52;26.10;99.90
11107;DHT22;5607;48.302;14.294;2023-09-07T09:08:45;26.00;99.90
11107;DHT22;5607;48.302;14.294;2023-09-07T09:11:31;25.90;99.90
11107;DHT22;5607;48.302;14.294;2023-09-07T09:14:18;25.80;99.90
11107;DHT22;5607;48.302;14.294;2023-09-07T09:17:04;25.80;99.90
11107;DHT22;5607;48.302;14.294;2023-09-07T09:19:50;25.90;99.90
11107;DHT22;5607;48.302;14.294;2023-09-07T09:22:37;26.00;99.90
11107;DHT22;5607;48.302;14.294;2023-09-07T09:25:23;26.00;99.90
11107;DHT22;5607;48.302;14.294;2023-09-07T09:28:09;26.00;99.90
11107;DHT22;5607;48.302;14.294;2023-09-07T09:30:56;26.00;99.90
11107;DHT22;5607;48.302;14.294;2023-09-07T09:33:47;26.00;99.90
11107;DHT22;5607;48.302;14.294;2023-09-07T09:36:33;26.00;99.90
11107;DHT22;5607;48.302;14.294;2023-09-07T09:39:21;26.00;99.90
11107;DHT22;5607;48.302;14.294;2023-09-07T09:42:07;25.90;99.90
11107;DHT22;5607;48.302;14.294;2023-09-07T09:44:54;26.00;99.90
11107;DHT22;5607;48.302;14.294;2023-09-07T09:47:41;25.90;99.90
11107;DHT22;5607;48.302;14.294;2023-09-07T09:50:27;25.90;99.90
11107;DHT22;5607;48.302;14.294;2023-09-07T09:53:17;26.00;99.90
11107;DHT22;5607;48.302;14.294;2023-09-07T09:56:06;26.10;99.90
11107;DHT22;5607;48.302;14.294;2023-09-07T09:58:52;26.00;99.90
11107;DHT22;5607;48.302;14.294;2023-09-07T10:01:43;26.20;99.90
11107;DHT22;5607;48.302;14.294;2023-09-07T10:04:30;26.20;99.90
11107;DHT22;5607;48.302;14.294;2023-09-07T10:07:18;26.30;99.90
11107;DHT22;5607;48.302;14.294;2023-09-07T10:10:04;26.30;99.90
11107;DHT22;5607;48.302;14.294;2023-09-07T10:12:55;26.30;99.90
11107;DHT22;5607;48.302;14.294;2023-09-07T10:15:41;26.30;99.90
11107;DHT22;5607;48.302;14.294;2023-09-07T10:18:33;26.30;99.90
11107;DHT22;5607;48.302;14.294;2023-09-07T10:21:19;26.30;99.90
11107;DHT22;5607;48.302;14.294;2023-09-07T10:24:05;26.40;99.90
11107;DHT22;5607;48.302;14.294;2023-09-07T10:27:04;26.50;99.90
11107;DHT22;5607;48.302;14.294;2023-09-07T10:29:51;26.60;99.90
11107;DHT22;5607;48.302;14.294;2023-09-07T10:32:40;26.60;99.90
11107;DHT22;5607;48.302;14.294;2023-09-07T10:35:27;26.70;99.90
11107;DHT22;5607;48.302;14.294;2023-09-07T10:38:16;26.80;99.90
11107;DHT22;5607;48.302;14.294;2023-09-07T10:41:02;26.80;99.90
11107;DHT22;5607;48.302;14.294;2023-09-07T10:43:53;27.00;99.90
11107;DHT22;5607;48.302;14.294;2023-09-07T10:46:40;27.10;99.90
11107;DHT22;5607;48.302;14.294;2023-09-07T10:49:26;27.10;99.90
11107;DHT22;5607;48.302;14.294;2023-09-07T10:52:12;27.10;99.90
11107;DHT22;5607;48.302;14.294;2023-09-07T10:54:58;27.20;99.90
11107;DHT22;5607;48.302;14.294;2023-09-07T10:57:45;27.30;99.90
11107;DHT22;5607;48.302;14.294;2023-09-07T11:00:32;27.30;99.90
11107;DHT22;5607;48.302;14.294;2023-09-07T11:03:18;27.40;99.90
11107;DHT22;5607;48.302;14.294;2023-09-07T11:08:54;27.70;99.90
11107;DHT22;5607;48.302;14.294;2023-09-07T11:11:45;27.80;99.90
11107;DHT22;5607;48.302;14.294;2023-09-07T11:14:32;27.80;99.90
11107;DHT22;5607;48.302;14.294;2023-09-07T11:17:18;27.90;99.90
11107;DHT22;5607;48.302;14.294;2023-09-07T11:20:06;27.90;99.90
11107;DHT22;5607;48.302;14.294;2023-09-07T11:22:53;27.90;99.90
11107;DHT22;5607;48.302;14.294;2023-09-07T11:25:40;28.00;99.90
11107;DHT22;5607;48.302;14.294;2023-09-07T11:28:29;28.00;99.90
11107;DHT22;5607;48.302;14.294;2023-09-07T11:31:18;28.10;99.90
11107;DHT22;5607;48.302;14.294;2023-09-07T11:34:08;28.20;99.90
11107;DHT22;5607;48.302;14.294;2023-09-07T11:36:54;28.30;99.90
11107;DHT22;5607;48.302;14.294;2023-09-07T11:39:40;28.40;99.90
11107;DHT22;5607;48.302;14.294;2023-09-07T11:42:27;28.50;99.90
11107;DHT22;5607;48.302;14.294;2023-09-07T11:45:13;28.60;99.90
11107;DHT22;5607;48.302;14.294;2023-09-07T11:47:59;28.70;99.90
11107;DHT22;5607;48.302;14.294;2023-09-07T11:50:46;28.90;99.90
11107;DHT22;5607;48.302;14.294;2023-09-07T11:53:32;29.00;99.90
11107;DHT22;5607;48.302;14.294;2023-09-07T11:56:18;29.20;99.90
11107;DHT22;5607;48.302;14.294;2023-09-07T11:59:04;29.20;99.90
11107;DHT22;5607;48.302;14.294;2023-09-07T12:01:50;29.20;99.90
11107;DHT22;5607;48.302;14.294;2023-09-07T12:04:38;29.20;99.90
11107;DHT22;5607;48.302;14.294;2023-09-07T12:07:24;29.30;99.90
11107;DHT22;5607;48.302;14.294;2023-09-07T12:10:11;29.40;99.90
11107;DHT22;5607;48.302;14.294;2023-09-07T12:12:57;29.50;99.90
11107;DHT22;5607;48.302;14.294;2023-09-07T12:15:44;29.70;99.90
11107;DHT22;5607;48.302;14.294;2023-09-07T12:18:30;29.90;99.90
11107;DHT22;5607;48.302;14.294;2023-09-07T12:21:16;29.90;99.90
11107;DHT22;5607;48.302;14.294;2023-09-07T12:24:02;29.90;99.90
11107;DHT22;5607;48.302;14.294;2023-09-07T12:26:49;30.00;99.90
11107;DHT22;5607;48.302;14.294;2023-09-07T12:29:35;30.00;99.90
11107;DHT22;5607;48.302;14.294;2023-09-07T12:32:21;30.00;99.90
11107;DHT22;5607;48.302;14.294;2023-09-07T12:35:08;30.10;99.90
11107;DHT22;5607;48.302;14.294;2023-09-07T12:37:54;30.10;99.90
11107;DHT22;5607;48.302;14.294;2023-09-07T12:40:40;30.10;99.90
11107;DHT22;5607;48.302;14.294;2023-09-07T12:43:27;30.10;99.90
11107;DHT22;5607;48.302;14.294;2023-09-07T12:46:13;30.30;99.90
11107;DHT22;5607;48.302;14.294;2023-09-07T12:48:59;30.30;99.90
11107;DHT22;5607;48.302;14.294;2023-09-07T12:51:46;30.40;99.90
11107;DHT22;5607;48.302;14.294;2023-09-07T12:54:33;30.40;99.90
11107;DHT22;5607;48.302;14.294;2023-09-07T12:57:19;30.40;99.90
11107;DHT22;5607;48.302;14.294;2023-09-07T13:00:05;30.40;99.90
11107;DHT22;5607;48.302;14.294;2023-09-07T13:02:52;30.40;99.90
11107;DHT22;5607;48.302;14.294;2023-09-07T13:05:39;30.50;99.90
11107;DHT22;5607;48.302;14.294;2023-09-07T13:08:25;30.70;99.90
11107;DHT22;5607;48.302;14.294;2023-09-07T13:11:11;30.90;99.90
11107;DHT22;5607;48.302;14.294;2023-09-07T13:13:58;30.90;99.90
11107;DHT22;5607;48.302;14.294;2023-09-07T13:16:45;30.90;99.90
11107;DHT22;5607;48.302;14.294;2023-09-07T13:19:31;30.90;99.90
11107;DHT22;5607;48.302;14.294;2023-09-07T13:22:17;31.10;99.90
11107;DHT22;5607;48.302;14.294;2023-09-07T13:25:04;31.10;99.90
11107;DHT22;5607;48.302;14.294;2023-09-07T13:27:51;31.10;99.90
11107;DHT22;5607;48.302;14.294;2023-09-07T13:30:37;31.10;99.90
11107;DHT22;5607;48.302;14.294;2023-09-07T13:33:23;31.20;99.90
11107;DHT22;5607;48.302;14.294;2023-09-07T13:36:11;31.30;99.90
11107;DHT22;5607;48.302;14.294;2023-09-07T13:38:57;31.40;99.90
11107;DHT22;5607;48.302;14.294;2023-09-07T13:41:45;31.40;99.90
11107;DHT22;5607;48.302;14.294;2023-09-07T13:44:31;31.50;99.90
11107;DHT22;5607;48.302;14.294;2023-09-07T13:47:17;31.60;99.90
11107;DHT22;5607;48.302;14.294;2023-09-07T13:50:04;31.70;99.90
11107;DHT22;5607;48.302;14.294;2023-09-07T13:52:50;31.90;99.90
11107;DHT22;5607;48.302;14.294;2023-09-07T13:55:37;32.00;99.90
11107;DHT22;5607;48.302;14.294;2023-09-07T13:58:25;32.00;99.90
11107;DHT22;5607;48.302;14.294;2023-09-07T14:01:11;32.20;99.90
11107;DHT22;5607;48.302;14.294;2023-09-07T14:03:58;32.50;99.90
11107;DHT22;5607;48.302;14.294;2023-09-07T14:06:44;32.70;99.90
11107;DHT22;5607;48.302;14.294;2023-09-07T14:09:30;33.00;99.90
11107;DHT22;5607;48.302;14.294;2023-09-07T14:12:16;33.50;99.90
11107;DHT22;5607;48.302;14.294;2023-09-07T14:15:03;34.20;99.90
11107;DHT22;5607;48.302;14.294;2023-09-07T14:17:49;34.50;99.90
11107;DHT22;5607;48.302;14.294;2023-09-07T14:20:35;34.70;99.90
11107;DHT22;5607;48.302;14.294;2023-09-07T14:23:21;34.70;99.90
11107;DHT22;5607;48.302;14.294;2023-09-07T14:26:08;35.30;99.90
11107;DHT22;5607;48.302;14.294;2023-09-07T14:28:55;36.00;99.90
11107;DHT22;5607;48.302;14.294;2023-09-07T14:31:41;36.90;99.90
11107;DHT22;5607;48.302;14.294;2023-09-07T14:34:28;37.00;99.90
11107;DHT22;5607;48.302;14.294;2023-09-07T14:37:14;37.80;99.90
11107;DHT22;5607;48.302;14.294;2023-09-07T14:40:01;39.10;99.90
11107;DHT22;5607;48.302;14.294;2023-09-07T14:42:47;40.20;99.90
11107;DHT22;5607;48.302;14.294;2023-09-07T14:45:33;41.20;99.90
11107;DHT22;5607;48.302;14.294;2023-09-07T14:48:19;41.40;99.90
11107;DHT22;5607;48.302;14.294;2023-09-07T14:51:06;41.10;99.90
11107;DHT22;5607;48.302;14.294;2023-09-07T14:53:52;42.20;99.90
11107;DHT22;5607;48.302;14.294;2023-09-07T14:56:38;43.70;99.90
11107;DHT22;5607;48.302;14.294;2023-09-07T14:59:25;45.20;99.90
11107;DHT22;5607;48.302;14.294;2023-09-07T15:02:11;44.20;99.90
11107;DHT22;5607;48.302;14.294;2023-09-07T15:04:58;41.00;99.90
11107;DHT22;5607;48.302;14.294;2023-09-07T15:07:45;37.90;99.90
11107;DHT22;5607;48.302;14.294;2023-09-07T15:10:31;35.40;99.90
11107;DHT22;5607;48.302;14.294;2023-09-07T15:13:20;33.50;99.90
11107;DHT22;5607;48.302;14.294;2023-09-07T15:16:07;32.40;99.90
11107;DHT22;5607;48.302;14.294;2023-09-07T15:18:54;31.60;99.90
11107;DHT22;5607;48.302;14.294;2023-09-07T15:21:40;30.90;99.90
11107;DHT22;5607;48.302;14.294;2023-09-07T15:24:26;30.60;99.90
11107;DHT22;5607;48.302;14.294;2023-09-07T15:27:12;30.40;99.90
11107;DHT22;5607;48.302;14.294;2023-09-07T15:30:00;30.10;99.90
11107;DHT22;5607;48.302;14.294;2023-09-07T15:32:46;29.90;99.90
11107;DHT22;5607;48.302;14.294;2023-09-07T15:35:32;29.60;99.90
11107;DHT22;5607;48.302;14.294;2023-09-07T15:38:18;29.50;99.90
11107;DHT22;5607;48.302;14.294;2023-09-07T15:41:06;29.40;99.90
11107;DHT22;5607;48.302;14.294;2023-09-07T15:43:53;29.50;99.90
11107;DHT22;5607;48.302;14.294;2023-09-07T15:46:40;29.50;99.90
11107;DHT22;5607;48.302;14.294;2023-09-07T15:49:27;29.40;99.90
11107;DHT22;5607;48.302;14.294;2023-09-07T15:52:13;29.40;99.90
11107;DHT22;5607;48.302;14.294;2023-09-07T15:54:59;29.40;99.90
11107;DHT22;5607;48.302;14.294;2023-09-07T15:57:45;29.30;99.90
11107;DHT22;5607;48.302;14.294;2023-09-07T16:00:33;29.20;99.90
11107;DHT22;5607;48.302;14.294;2023-09-07T16:03:20;29.20;99.90
11107;DHT22;5607;48.302;14.294;2023-09-07T16:06:06;29.10;99.90
11107;DHT22;5607;48.302;14.294;2023-09-07T16:08:52;29.00;99.90
11107;DHT22;5607;48.302;14.294;2023-09-07T16:11:39;28.90;99.90
11107;DHT22;5607;48.302;14.294;2023-09-07T16:14:25;28.80;99.90
11107;DHT22;5607;48.302;14.294;2023-09-07T16:17:11;28.70;99.90
11107;DHT22;5607;48.302;14.294;2023-09-07T16:20:00;28.70;99.90
11107;DHT22;5607;48.302;14.294;2023-09-07T16:22:49;28.60;99.90
11107;DHT22;5607;48.302;14.294;2023-09-07T16:25:35;28.60;99.90
11107;DHT22;5607;48.302;14.294;2023-09-07T16:28:22;28.50;99.90
11107;DHT22;5607;48.302;14.294;2023-09-07T16:31:08;28.40;99.90
11107;DHT22;5607;48.302;14.294;2023-09-07T16:33:54;28.30;99.90
11107;DHT22;5607;48.302;14.294;2023-09-07T16:36:40;28.20;99.90
11107;DHT22;5607;48.302;14.294;2023-09-07T16:39:27;28.10;99.90
11107;DHT22;5607;48.302;14.294;2023-09-07T16:42:13;28.00;99.90
11107;DHT22;5607;48.302;14.294;2023-09-07T16:44:59;27.90;99.90
11107;DHT22;5607;48.302;14.294;2023-09-07T16:47:45;27.80;99.90
11107;DHT22;5607;48.302;14.294;2023-09-07T16:50:32;27.70;99.90
11107;DHT22;5607;48.302;14.294;2023-09-07T16:53:18;27.60;99.90
11107;DHT22;5607;48.302;14.294;2023-09-07T16:56:04;27.50;99.90
11107;DHT22;5607;48.302;14.294;2023-09-07T16:58:50;27.40;99.90
11107;DHT22;5607;48.302;14.294;2023-09-07T17:01:37;27.40;99.90
11107;DHT22;5607;48.302;14.294;2023-09-07T17:04:23;27.30;99.90
11107;DHT22;5607;48.302;14.294;2023-09-07T17:07:10;27.20;99.90
11107;DHT22;5607;48.302;14.294;2023-09-07T17:09:56;27.10;99.90
11107;DHT22;5607;48.302;14.294;2023-09-07T17:12:42;27.00;99.90
11107;DHT22;5607;48.302;14.294;2023-09-07T17:15:29;26.90;99.90
11107;DHT22;5607;48.302;14.294;2023-09-07T17:18:15;26.80;99.90
11107;DHT22;5607;48.302;14.294;2023-09-07T17:21:05;26.80;99.90
11107;DHT22;5607;48.302;14.294;2023-09-07T17:23:51;26.70;99.90
11107;DHT22;5607;48.302;14.294;2023-09-07T17:26:38;26.60;99.90
11107;DHT22;5607;48.302;14.294;2023-09-07T17:29:24;26.50;99.90
11107;DHT22;5607;48.302;14.294;2023-09-07T17:32:10;26.40;99.90
11107;DHT22;5607;48.302;14.294;2023-09-07T17:35:01;26.20;99.90
11107;DHT22;5607;48.302;14.294;2023-09-07T17:37:47;26.10;99.90